Time;durP1;ratioP1;P1;durP2;ratioP2;P2;SDS_P1;SDS_P2;PMS_P1;PMS_P2;Temp;Humidity;BMP_temperature;BMP_pressure;BME280_temperature;BME280_humidity;BME280_pressure;Samples;Min_cycle;Max_cycle;Signal;HPM_P1;HPM_P2
2023/12/28 00:00:40;;;;;;;;;;;;;;;10.70;49.19;97410.91;4219234;28;5605;-75
2023/12/28 00:02:44;;;;;;;;;;;;;;;10.70;49.32;97415.38;4219275;28;5616;-74
2023/12/28 00:04:45;;;;;;;;;;;;;;;10.70;49.24;97418.03;4215138;28;5708;-74
2023/12/28 00:06:49;;;;;;;;;;;;;;;10.71;49.49;97419.66;4219074;28;5612;-75
2023/12/28 00:08:53;;;;;;;;;;;;;;;10.71;49.35;97419.66;4210027;28;5617;-74
2023/12/28 00:11:06;;;;;;;;;;;;;;;10.72;49.62;97421.31;4222990;28;5692;-75
2023/12/28 00:13:08;;;;;;;;;;;;;;;10.73;49.84;97429.06;4218216;28;5620;-74
2023/12/28 00:15:11;;;;;;;;;;;;;;;10.73;49.85;97429.06;4206804;28;6314;-76
2023/12/28 00:17:14;;;;;;;;;;;;;;;10.73;49.67;97421.13;4218974;28;5682;-75
2023/12/28 00:19:16;;;;;;;;;;;;;;;10.73;49.57;97425.59;4209547;28;5617;-75
2023/12/28 00:21:19;;;;;;;;;;;;;;;10.72;49.99;97424.78;4227392;28;5594;-75
2023/12/28 00:23:22;;;;;;;;;;;;;;;10.72;49.95;97418.66;4221710;28;5590;-75
2023/12/28 00:25:26;;;;;;;;;;;;;;;10.72;49.86;97419.47;4226696;28;5824;-74
2023/12/28 00:27:29;;;;;;;;;;;;;;;10.71;50.03;97412.56;4218397;28;5602;-76
2023/12/28 00:29:38;;;;;;;;;;;;;;;10.71;49.92;97420.47;4222116;28;5612;-76
2023/12/28 00:31:41;;;;;;;;;;;;;;;10.71;50.38;97419.66;4212963;28;5678;-75
2023/12/28 00:33:43;;;;;;;;;;;;;;;10.68;50.46;97417.38;4212792;28;5693;-75
2023/12/28 00:35:46;;;;;;;;;;;;;;;10.68;50.46;97417.38;4216509;28;5688;-75
2023/12/28 00:37:50;;;;;;;;;;;;;;;10.65;50.59;97420.38;4227332;28;5594;-74
2023/12/28 00:39:53;;;;;;;;;;;;;;;10.67;50.64;97418.38;4216313;28;5769;-74
2023/12/28 00:41:57;;;;;;;;;;;;;;;10.66;50.50;97414.09;4209929;28;5718;-75
2023/12/28 00:44:01;;;;;;;;;;;;;;;10.66;50.61;97414.91;4210175;28;5707;-75
2023/12/28 00:46:04;;;;;;;;;;;;;;;10.65;50.57;97413.28;4201819;28;5709;-75
2023/12/28 00:48:08;;;;;;;;;;;;;;;10.67;50.56;97413.09;4209189;28;5571;-73
2023/12/28 00:50:11;;;;;;;;;;;;;;;10.68;50.77;97414.75;4215693;28;5688;-74
2023/12/28 00:52:15;;;;;;;;;;;;;;;10.68;50.63;97417.38;4201630;28;5697;-74
2023/12/28 00:54:17;;;;;;;;;;;;;;;10.67;51.10;97424.50;4209346;28;5673;-75
2023/12/28 00:56:21;;;;;;;;;;;;;;;10.67;50.92;97428.97;4218234;28;5844;-74
2023/12/28 00:58:25;;;;;;;;;;;;;;;10.65;50.76;97423.03;4215457;28;5590;-74
2023/12/28 01:00:28;;;;;;;;;;;;;;;10.66;51.22;97422.03;4217563;28;5696;-74
2023/12/28 01:02:31;;;;;;;;;;;;;;;10.65;51.16;97430.97;4205893;28;5629;-75
2023/12/28 01:04:34;;;;;;;;;;;;;;;10.67;51.13;97436.91;4214541;28;5702;-74
2023/12/28 01:06:37;;;;;;;;;;;;;;;10.67;50.84;97434.25;4212961;28;5753;-75
2023/12/28 01:08:40;;;;;;;;;;;;;;;10.67;51.28;97426.31;4218090;28;5753;-74
2023/12/28 01:10:42;;;;;;;;;;;;;;;10.67;51.20;97427.13;4212262;28;5751;-75
2023/12/28 01:12:45;;;;;;;;;;;;;;;10.67;51.46;97429.78;4201358;28;5620;-75
2023/12/28 01:14:50;;;;;;;;;;;;;;;10.68;51.28;97436.72;4219393;28;5590;-75
2023/12/28 01:16:53;;;;;;;;;;;;;;;10.70;51.39;97441.81;4227227;28;5640;-75
2023/12/28 01:18:56;;;;;;;;;;;;;;;10.68;51.15;97446.47;4207071;28;5716;-75
2023/12/28 01:20:59;;;;;;;;;;;;;;;10.69;51.13;97437.53;4209881;28;5698;-76
2023/12/28 01:23:02;;;;;;;;;;;;;;;10.70;51.67;97423.31;4201427;28;5686;-75
2023/12/28 01:25:06;;;;;;;;;;;;;;;10.69;51.73;97432.25;4208829;28;5709;-76
2023/12/28 01:27:09;;;;;;;;;;;;;;;10.69;51.86;97435.72;4203142;28;5701;-75
2023/12/28 01:29:12;;;;;;;;;;;;;;;10.69;51.48;97429.59;4209106;28;5639;-75
2023/12/28 01:31:17;;;;;;;;;;;;;;;10.70;51.86;97434.72;4206140;28;5697;-75
2023/12/28 01:33:20;;;;;;;;;;;;;;;10.71;51.78;97427.59;4202701;28;5701;-75
2023/12/28 01:35:23;;;;;;;;;;;;;;;10.70;52.11;97431.25;4206519;28;5793;-75
2023/12/28 01:37:25;;;;;;;;;;;;;;;10.71;52.09;97430.25;4200959;28;5929;-75
2023/12/28 01:39:28;;;;;;;;;;;;;;;10.71;52.13;97430.25;4209177;28;5706;-75
2023/12/28 01:41:31;;;;;;;;;;;;;;;10.72;51.95;97439.81;4212071;28;5687;-74
2023/12/28 01:43:33;;;;;;;;;;;;;;;10.71;52.27;97439.00;4213573;28;5637;-75
2023/12/28 01:45:36;;;;;;;;;;;;;;;10.69;52.16;97440.19;4210906;28;5715;-74
2023/12/28 01:47:41;;;;;;;;;;;;;;;10.69;52.50;97438.34;4214304;28;5609;-75
2023/12/28 01:49:44;;;;;;;;;;;;;;;10.71;52.50;97441.63;4214301;28;5813;-75
2023/12/28 01:51:48;;;;;;;;;;;;;;;10.72;52.39;97442.47;4203895;28;5652;-75
2023/12/28 01:53:53;;;;;;;;;;;;;;;10.72;52.83;97442.47;4205153;28;5723;-74
2023/12/28 01:55:56;;;;;;;;;;;;;;;10.70;52.82;97450.56;4202859;28;5624;-75
2023/12/28 01:57:59;;;;;;;;;;;;;;;10.67;52.84;97445.66;4212131;28;5609;-75
2023/12/28 02:00:04;;;;;;;;;;;;;;;10.67;53.04;97450.13;4206624;28;5651;-75
2023/12/28 02:02:07;;;;;;;;;;;;;;;10.67;52.89;97450.13;4208703;28;5719;-76
2023/12/28 02:04:12;;;;;;;;;;;;;;;10.68;52.89;97446.47;4208679;28;5767;-74
2023/12/28 02:06:17;;;;;;;;;;;;;;;10.65;53.24;97452.13;4207093;28;5751;-74
2023/12/28 02:08:20;;;;;;;;;;;;;;;10.65;53.01;97452.13;4208423;28;5776;-75
2023/12/28 02:10:23;;;;;;;;;;;;;;;10.65;53.34;97457.41;4203736;28;5617;-75
2023/12/28 02:12:26;;;;;;;;;;;;;;;10.63;53.36;97470.78;4205326;28;5765;-75
2023/12/28 02:14:29;;;;;;;;;;;;;;;10.62;53.55;97457.75;4212579;28;5598;-74
2023/12/28 02:16:35;;;;;;;;;;;;;;;10.61;53.38;97459.56;4211951;28;5088;-75
2023/12/28 02:18:44;;;;;;;;;;;;;;;10.59;53.83;97463.41;4207083;28;5718;-75
2023/12/28 02:20:50;;;;;;;;;;;;;;;10.58;53.66;97475.78;4219114;28;5649;-75
2023/12/28 02:22:54;;;;;;;;;;;;;;;10.58;53.94;97486.38;4209126;28;5815;-75
2023/12/28 02:25:08;;;;;;;;;;;;;;;10.58;53.90;97482.91;4220796;28;5602;-75
2023/12/28 02:27:11;;;;;;;;;;;;;;;10.57;53.98;97471.50;4208649;28;5624;-75
2023/12/28 02:29:13;;;;;;;;;;;;;;;10.58;54.31;97477.63;4211177;28;5593;-75
2023/12/28 02:31:27;;;;;;;;;;;;;;;10.57;54.05;97487.38;4215089;28;5714;-75
2023/12/28 02:33:37;;;;;;;;;;;;;;;10.55;54.18;97478.78;4212739;28;5787;-75
2023/12/28 02:35:44;;;;;;;;;;;;;;;10.56;54.09;97484.91;4210512;28;5593;-75
2023/12/28 02:37:51;;;;;;;;;;;;;;;10.56;54.34;97483.09;4221115;28;5636;-75
2023/12/28 02:39:56;;;;;;;;;;;;;;;10.57;54.25;97470.69;4213170;28;5613;-76
2023/12/28 02:42:00;;;;;;;;;;;;;;;10.57;54.36;97482.06;4208168;28;5806;-75
2023/12/28 02:44:03;;;;;;;;;;;;;;;10.55;54.42;97484.09;4206130;28;5609;-75
2023/12/28 02:46:06;;;;;;;;;;;;;;;10.54;54.75;97476.34;4217159;28;5700;-76
2023/12/28 02:48:09;;;;;;;;;;;;;;;10.54;54.65;97476.34;4207196;28;6341;-75
2023/12/28 02:50:13;;;;;;;;;;;;;;;10.50;54.76;97474.00;4204911;28;5744;-74
2023/12/28 02:52:16;;;;;;;;;;;;;;;10.50;54.70;97478.47;4203627;28;5896;-75
2023/12/28 02:54:19;;;;;;;;;;;;;;;10.51;54.87;97472.19;4218605;28;5617;-75
2023/12/28 02:56:22;;;;;;;;;;;;;;;10.52;54.56;97478.31;4224844;28;5792;-75
2023/12/28 02:58:25;;;;;;;;;;;;;;;10.52;54.60;97468.56;4213570;28;5748;-75
2023/12/28 03:00:29;;;;;;;;;;;;;;;10.54;54.63;97465.75;4208585;28;5807;-75
2023/12/28 03:02:32;;;;;;;;;;;;;;;10.55;54.69;97462.13;4204606;28;5628;-76
2023/12/28 03:04:36;;;;;;;;;;;;;;;10.54;54.64;97460.47;4211093;28;5646;-75
2023/12/28 03:06:39;;;;;;;;;;;;;;;10.52;55.01;97446.56;4203239;28;5686;-75
2023/12/28 03:08:42;;;;;;;;;;;;;;;10.53;54.76;97442.94;4201972;28;5787;-75
2023/12/28 03:10:45;;;;;;;;;;;;;;;10.53;54.73;97437.66;4202202;28;5647;-75
2023/12/28 03:12:48;;;;;;;;;;;;;;;10.53;54.90;97430.53;4214278;28;5609;-74
2023/12/28 03:14:53;;;;;;;;;;;;;;;10.50;54.67;97434.38;4224905;28;5594;-75
2023/12/28 03:16:56;;;;;;;;;;;;;;;10.49;54.83;97430.06;4201285;28;5635;-75
2023/12/28 03:18:59;;;;;;;;;;;;;;;10.45;55.10;97447.31;4223383;28;5616;-75
2023/12/28 03:21:02;;;;;;;;;;;;;;;10.44;55.10;97445.66;4208213;28;5776;-74
2023/12/28 03:23:05;;;;;;;;;;;;;;;10.43;55.03;97456.41;4216436;28;5606;-74
2023/12/28 03:25:08;;;;;;;;;;;;;;;10.43;54.70;97457.22;4204309;28;5702;-74
2023/12/28 03:27:12;;;;;;;;;;;;;;;10.42;54.98;97460.06;4208114;28;6334;-74
2023/12/28 03:29:15;;;;;;;;;;;;;;;10.41;55.10;97464.50;4209096;28;5629;-75
2023/12/28 03:31:20;;;;;;;;;;;;;;;10.40;54.72;97470.78;4202922;28;5797;-75
2023/12/28 03:33:23;;;;;;;;;;;;;;;10.41;54.71;97466.31;4190217;28;5742;-74
2023/12/28 03:35:26;;;;;;;;;;;;;;;10.41;54.70;97456.56;4214598;28;5609;-75
2023/12/28 03:37:29;;;;;;;;;;;;;;;10.41;55.08;97451.28;4211762;28;5930;-75
2023/12/28 03:39:33;;;;;;;;;;;;;;;10.42;54.69;97442.38;4212191;28;5605;-74
2023/12/28 03:41:36;;;;;;;;;;;;;;;10.42;54.94;97446.84;4224319;28;5709;-74
2023/12/28 03:43:37;;;;;;;;;;;;;;;10.43;54.66;97448.47;4221057;28;5092;-75
2023/12/28 03:45:41;;;;;;;;;;;;;;;10.42;54.67;97447.66;4216385;28;7659;-75
2023/12/28 03:47:46;;;;;;;;;;;;;;;10.41;54.78;97440.69;4221488;28;5688;-75
2023/12/28 03:49:48;;;;;;;;;;;;;;;10.43;54.89;97448.47;4194687;28;5647;-74
2023/12/28 03:51:52;;;;;;;;;;;;;;;10.43;54.96;97444.00;4214349;28;5608;-75
2023/12/28 03:53:55;;;;;;;;;;;;;;;10.42;55.02;97439.72;4226258;28;5624;-75
2023/12/28 03:55:58;;;;;;;;;;;;;;;10.42;54.60;97446.84;4218279;28;5598;-74
2023/12/28 03:58:01;;;;;;;;;;;;;;;10.40;54.70;97444.34;4219244;28;5765;-74
2023/12/28 04:00:05;;;;;;;;;;;;;;;10.41;55.06;97461.84;4211084;28;5682;-74
2023/12/28 04:02:07;;;;;;;;;;;;;;;10.39;55.05;97445.34;4217358;28;7010;-74
2023/12/28 04:04:12;;;;;;;;;;;;;;;10.37;54.83;97457.91;4213453;28;5701;-75
2023/12/28 04:06:16;;;;;;;;;;;;;;;10.36;54.86;97453.63;4209856;28;5627;-75
2023/12/28 04:08:18;;;;;;;;;;;;;;;10.36;54.91;97447.53;4218481;28;5773;-74
2023/12/28 04:10:31;;;;;;;;;;;;;;;10.35;54.89;97436.13;4207187;28;7273;-74
2023/12/28 04:12:57;;;;;;;;;;;;;;;10.33;54.86;97438.13;4211944;28;5836;-74
2023/12/28 04:15:00;;;;;;;;;;;;;;;10.32;54.60;97439.13;4217806;28;5767;-74
2023/12/28 04:17:03;;;;;;;;;;;;;;;10.32;54.86;97431.22;4207604;28;5710;-75
2023/12/28 04:19:06;;;;;;;;;;;;;;;10.33;54.41;97432.84;4216428;28;5711;-74
2023/12/28 04:21:11;;;;;;;;;;;;;;;10.34;54.32;97429.22;4203832;28;5652;-74
2023/12/28 04:23:15;;;;;;;;;;;;;;;10.34;54.41;97433.66;4215091;28;5628;-76
2023/12/28 04:25:18;;;;;;;;;;;;;;;10.33;54.19;97417.00;4213759;28;5629;-74
2023/12/28 04:27:21;;;;;;;;;;;;;;;10.34;54.20;97431.84;4202350;28;5890;-75
2023/12/28 04:29:24;;;;;;;;;;;;;;;10.33;54.42;97432.03;4202551;28;5723;-75
2023/12/28 04:31:27;;;;;;;;;;;;;;;10.31;53.96;97429.56;4214250;28;5077;-75
2023/12/28 04:33:30;;;;;;;;;;;;;;;10.32;53.98;97447.06;4206169;28;5730;-74
2023/12/28 04:35:34;;;;;;;;;;;;;;;10.32;53.85;97440.97;4222745;28;5627;-75
2023/12/28 04:37:39;;;;;;;;;;;;;;;10.29;54.15;97442.09;4206748;28;5708;-75
2023/12/28 04:39:42;;;;;;;;;;;;;;;10.30;53.86;97443.75;4214447;28;5600;-75
2023/12/28 04:41:43;;;;;;;;;;;;;;;10.32;53.74;97447.06;4215453;28;5759;-75
2023/12/28 04:43:46;;;;;;;;;;;;;;;10.32;53.63;97451.53;4209821;28;5848;-75
2023/12/28 04:45:48;;;;;;;;;;;;;;;10.28;53.80;97456.31;4210069;28;5979;-76
2023/12/28 04:47:52;;;;;;;;;;;;;;;10.29;53.85;97454.50;4208868;28;7246;-75
2023/12/28 04:49:54;;;;;;;;;;;;;;;10.29;53.78;97457.97;4206581;28;5635;-75
2023/12/28 04:51:57;;;;;;;;;;;;;;;10.28;53.58;97466.91;4217146;28;5590;-75
2023/12/28 04:54:02;;;;;;;;;;;;;;;10.26;53.94;97457.50;4206266;28;5613;-76
2023/12/28 04:56:06;;;;;;;;;;;;;;;10.28;53.78;97463.44;4210588;28;5628;-75
2023/12/28 04:58:09;;;;;;;;;;;;;;;10.26;53.59;97458.31;4233748;28;5597;-76
2023/12/28 05:00:13;;;;;;;;;;;;;;;10.28;53.62;97451.03;4225855;28;5842;-75
2023/12/28 05:02:17;;;;;;;;;;;;;;;10.28;53.60;97461.59;4216102;28;5617;-76
2023/12/28 05:04:19;;;;;;;;;;;;;;;10.27;53.88;97459.97;4217054;28;5601;-76
2023/12/28 05:06:21;;;;;;;;;;;;;;;10.27;53.60;97461.78;4232053;28;5640;-75
2023/12/28 05:08:24;;;;;;;;;;;;;;;10.27;53.74;97462.59;4217773;28;5612;-76
2023/12/28 05:10:28;;;;;;;;;;;;;;;10.25;53.58;97461.97;4221436;28;5677;-75
2023/12/28 05:12:31;;;;;;;;;;;;;;;10.26;53.43;97463.59;4210015;28;5745;-75
2023/12/28 05:14:46;;;;;;;;;;;;;;;10.26;53.49;97453.03;4207161;28;5808;-75
2023/12/28 05:16:49;;;;;;;;;;;;;;;10.27;53.78;97454.69;4208338;28;5762;-75
2023/12/28 05:18:52;;;;;;;;;;;;;;;10.28;53.64;97451.03;4214406;28;5640;-75
2023/12/28 05:20:55;;;;;;;;;;;;;;;10.26;53.75;97446.94;4202597;28;5615;-75
2023/12/28 05:22:58;;;;;;;;;;;;;;;10.26;53.40;97447.75;4203997;28;5601;-75
2023/12/28 05:25:00;;;;;;;;;;;;;;;10.24;53.71;97456.84;4218133;28;5726;-74
2023/12/28 05:27:05;;;;;;;;;;;;;;;10.24;53.63;97454.22;4210074;28;5625;-74
2023/12/28 05:29:08;;;;;;;;;;;;;;;10.24;53.43;97452.41;4213363;28;5695;-74
2023/12/28 05:31:13;;;;;;;;;;;;;;;10.24;53.76;97464.78;4208294;28;5715;-74
2023/12/28 05:33:16;;;;;;;;;;;;;;;10.24;53.52;97452.41;4192134;28;5654;-74
2023/12/28 05:35:19;;;;;;;;;;;;;;;10.23;53.45;97458.69;4209792;28;5631;-74
2023/12/28 05:37:22;;;;;;;;;;;;;;;10.25;53.75;97461.97;4206350;28;5843;-74
2023/12/28 05:39:25;;;;;;;;;;;;;;;10.24;53.86;97455.03;4214138;28;5629;-74
2023/12/28 05:41:28;;;;;;;;;;;;;;;10.23;53.91;97457.84;4206013;28;5690;-73
2023/12/28 05:43:32;;;;;;;;;;;;;;;10.23;53.60;97453.41;4202192;28;5682;-74
2023/12/28 05:45:34;;;;;;;;;;;;;;;10.24;53.68;97459.50;4209715;28;5691;-75
2023/12/28 05:47:37;;;;;;;;;;;;;;;10.25;53.64;97461.97;4209610;28;5660;-75
2023/12/28 05:49:40;;;;;;;;;;;;;;;10.26;53.99;97452.22;4210271;28;5781;-75
2023/12/28 05:51:44;;;;;;;;;;;;;;;10.28;53.76;97458.97;4216704;28;5628;-75
2023/12/28 05:53:47;;;;;;;;;;;;;;;10.25;53.83;97472.53;4211270;28;5844;-75
2023/12/28 05:55:49;;;;;;;;;;;;;;;10.20;54.00;97477.50;4210878;28;5632;-74
2023/12/28 05:57:52;;;;;;;;;;;;;;;10.17;53.87;97477.81;4207533;28;5664;-75
2023/12/28 05:59:56;;;;;;;;;;;;;;;10.18;54.14;97476.81;4216585;28;5672;-74
2023/12/28 06:01:59;;;;;;;;;;;;;;;10.19;54.09;97479.31;4200762;28;5717;-75
2023/12/28 06:04:01;;;;;;;;;;;;;;;10.20;54.29;97472.22;4208459;28;5675;-74
2023/12/28 06:06:05;;;;;;;;;;;;;;;10.23;54.09;97460.50;4217180;28;5612;-75
2023/12/28 06:08:07;;;;;;;;;;;;;;;10.24;53.92;97451.56;4211387;28;5717;-76
2023/12/28 06:10:11;;;;;;;;;;;;;;;10.22;54.62;97457.03;4227408;28;5582;-75
2023/12/28 06:12:14;;;;;;;;;;;;;;;10.20;54.61;97453.72;4208797;28;5746;-75
2023/12/28 06:14:16;;;;;;;;;;;;;;;10.22;54.65;97459.69;4217726;28;5616;-74
2023/12/28 06:16:21;;;;;;;;;;;;;;;10.24;54.38;97459.50;4211047;28;5617;-74
2023/12/28 06:18:24;;;;;;;;;;;;;;;10.24;54.70;97454.22;4222517;28;5821;-75
2023/12/28 06:20:28;;;;;;;;;;;;;;;10.25;54.82;97455.84;4213221;28;5703;-75
2023/12/28 06:22:31;;;;;;;;;;;;;;;10.25;54.70;97456.69;4216985;28;5686;-74
2023/12/28 06:24:39;;;;;;;;;;;;;;;10.26;54.88;97449.56;4209893;28;5704;-76
2023/12/28 06:26:45;;;;;;;;;;;;;;;10.29;55.16;97454.50;4217103;28;5728;-74
2023/12/28 06:28:47;;;;;;;;;;;;;;;10.28;55.20;97445.75;4204807;28;5750;-74
2023/12/28 06:30:51;;;;;;;;;;;;;;;10.26;55.02;97453.03;4218852;28;5726;-75
2023/12/28 06:32:55;;;;;;;;;;;;;;;10.25;55.43;97451.41;4215201;28;5789;-75
2023/12/28 06:34:59;;;;;;;;;;;;;;;10.28;55.62;97461.59;4219239;28;5696;-75
2023/12/28 06:37:02;;;;;;;;;;;;;;;10.28;55.34;97466.91;4208420;28;5797;-74
2023/12/28 06:39:05;;;;;;;;;;;;;;;10.30;55.18;97453.50;4215594;28;5604;-75
2023/12/28 06:41:12;;;;;;;;;;;;;;;10.31;55.43;97468.38;4218230;28;5661;-75
2023/12/28 06:43:15;;;;;;;;;;;;;;;10.30;55.34;97470.19;4216826;28;5614;-75
2023/12/28 06:45:18;;;;;;;;;;;;;;;10.30;55.71;97480.75;4218669;28;5652;-75
2023/12/28 06:47:22;;;;;;;;;;;;;;;10.31;55.80;97477.13;4199860;28;5694;-75
2023/12/28 06:49:26;;;;;;;;;;;;;;;10.32;55.64;97486.72;4209278;28;5742;-76
2023/12/28 06:51:29;;;;;;;;;;;;;;;10.32;55.41;97484.06;4214099;28;5616;-75
2023/12/28 06:53:32;;;;;;;;;;;;;;;10.31;55.77;97485.06;4209197;28;5697;-75
2023/12/28 06:55:35;;;;;;;;;;;;;;;10.31;55.68;97478.97;4217149;28;5710;-75
2023/12/28 06:57:37;;;;;;;;;;;;;;;10.30;55.47;97475.47;4212236;28;5819;-75
2023/12/28 06:59:41;;;;;;;;;;;;;;;10.30;55.62;97470.19;4211151;28;5628;-75
2023/12/28 07:01:45;;;;;;;;;;;;;;;10.31;55.78;97463.94;4208426;28;5084;-75
2023/12/28 07:03:48;;;;;;;;;;;;;;;10.33;55.84;97463.75;4223508;28;5790;-75
2023/12/28 07:05:52;;;;;;;;;;;;;;;10.32;55.81;97459.47;4216311;28;5655;-75
2023/12/28 07:07:54;;;;;;;;;;;;;;;10.31;55.54;97455.19;4220035;28;5668;-75
2023/12/28 07:09:57;;;;;;;;;;;;;;;10.31;55.76;97456.00;4209298;28;5717;-75
2023/12/28 07:12:02;;;;;;;;;;;;;;;10.33;55.66;97455.81;4210879;28;5728;-75
2023/12/28 07:14:05;;;;;;;;;;;;;;;10.32;55.59;97447.06;4213222;28;5679;-76
2023/12/28 07:16:07;;;;;;;;;;;;;;;10.34;55.62;97449.53;4216137;28;5692;-76
2023/12/28 07:18:11;;;;;;;;;;;;;;;10.35;55.74;97457.28;4230224;28;5617;-76
2023/12/28 07:20:14;;;;;;;;;;;;;;;10.34;55.70;97458.28;4228743;28;5649;-76
2023/12/28 07:22:19;;;;;;;;;;;;;;;10.35;55.48;97472.31;4221638;28;5595;-75
2023/12/28 07:24:22;;;;;;;;;;;;;;;10.34;55.50;97466.22;4209476;28;5776;-75
2023/12/28 07:26:25;;;;;;;;;;;;;;;10.33;55.43;97467.22;4210607;28;5609;-75
2023/12/28 07:28:28;;;;;;;;;;;;;;;10.33;55.45;97461.09;4224764;28;5628;-75
2023/12/28 07:30:30;;;;;;;;;;;;;;;10.33;55.57;97456.63;4219070;28;5636;-75
2023/12/28 07:32:33;;;;;;;;;;;;;;;10.32;55.48;97452.34;4216084;28;5697;-75
2023/12/28 07:34:36;;;;;;;;;;;;;;;10.30;55.50;97466.72;4222744;28;5723;-74
2023/12/28 07:36:43;;;;;;;;;;;;;;;10.31;55.14;97471.03;4219680;28;5601;-76
2023/12/28 07:38:48;;;;;;;;;;;;;;;10.30;55.07;97472.81;4209824;28;5764;-76
2023/12/28 07:40:50;;;;;;;;;;;;;;;10.31;55.37;97466.56;4212734;28;5798;-76
2023/12/28 07:42:53;;;;;;;;;;;;;;;10.32;54.92;97472.69;4217452;28;5676;-76
2023/12/28 07:44:56;;;;;;;;;;;;;;;10.32;55.37;97468.22;4211445;28;5813;-75
2023/12/28 07:47:00;;;;;;;;;;;;;;;10.31;55.33;97463.94;4202513;28;5698;-75
2023/12/28 07:49:03;;;;;;;;;;;;;;;10.33;55.35;97458.47;4208119;28;5600;-75
2023/12/28 07:51:07;;;;;;;;;;;;;;;10.33;55.11;97456.63;4204247;28;5686;-75
2023/12/28 07:53:10;;;;;;;;;;;;;;;10.35;55.07;97448.53;4225513;28;5604;-74
2023/12/28 07:55:15;;;;;;;;;;;;;;;10.36;54.85;97450.16;4219012;28;5725;-74
2023/12/28 07:57:19;;;;;;;;;;;;;;;10.35;54.99;97453.81;4231645;28;5730;-75
2023/12/28 07:59:21;;;;;;;;;;;;;;;10.35;54.99;97452.00;4213220;28;5620;-76
2023/12/28 08:01:25;;;;;;;;;;;;;;;10.35;54.66;97449.34;4207605;28;5682;-75
2023/12/28 08:03:28;;;;;;;;;;;;;;;10.35;54.56;97456.47;4213937;28;5624;-75
2023/12/28 08:05:30;;;;;;;;;;;;;;;10.35;54.60;97459.91;4218135;28;5100;-76
2023/12/28 08:07:34;;;;;;;;;;;;;;;10.35;54.75;97452.00;4227561;28;7684;-75
2023/12/28 08:09:37;;;;;;;;;;;;;;;10.36;54.66;97451.00;4221916;28;5609;-75
2023/12/28 08:11:41;;;;;;;;;;;;;;;10.36;54.35;97443.06;4210901;28;5609;-73
2023/12/28 08:13:44;;;;;;;;;;;;;;;10.36;54.25;97447.53;4210861;28;5605;-74
2023/12/28 08:15:47;;;;;;;;;;;;;;;10.36;54.47;97456.28;4212957;28;5616;-74
2023/12/28 08:17:49;;;;;;;;;;;;;;;10.35;54.34;97452.00;4209287;28;5800;-75
2023/12/28 08:19:52;;;;;;;;;;;;;;;10.36;54.26;97451.00;4216288;28;5605;-75
2023/12/28 08:21:54;;;;;;;;;;;;;;;10.37;54.24;97449.16;4211381;28;5719;-75
2023/12/28 08:23:58;;;;;;;;;;;;;;;10.38;54.32;97456.09;4192701;28;5624;-74
2023/12/28 08:26:02;;;;;;;;;;;;;;;10.38;54.30;97456.09;4202011;28;5802;-75
2023/12/28 08:28:06;;;;;;;;;;;;;;;10.37;54.16;97459.75;4203104;28;5687;-75
2023/12/28 08:30:10;;;;;;;;;;;;;;;10.38;54.17;97461.38;4227567;28;5728;-74
2023/12/28 08:32:13;;;;;;;;;;;;;;;10.38;53.77;97462.22;4210535;28;5625;-73
2023/12/28 08:34:16;;;;;;;;;;;;;;;10.39;53.90;97461.22;4206960;28;5617;-76
2023/12/28 08:36:20;;;;;;;;;;;;;;;10.41;53.85;97461.84;4210746;28;5609;-76
2023/12/28 08:38:23;;;;;;;;;;;;;;;10.44;53.80;97452.78;4218501;28;5903;-75
2023/12/28 08:40:26;;;;;;;;;;;;;;;10.45;53.59;97457.88;4207034;28;5698;-76
2023/12/28 08:42:29;;;;;;;;;;;;;;;10.46;53.96;97456.88;4225520;28;5777;-76
2023/12/28 08:44:34;;;;;;;;;;;;;;;10.47;53.74;97463.81;4222516;28;6948;-75
2023/12/28 08:46:37;;;;;;;;;;;;;;;10.46;53.34;97464.81;4235433;28;5598;-75
2023/12/28 08:48:43;;;;;;;;;;;;;;;10.46;53.30;97463.97;4232320;28;5841;-75
2023/12/28 08:50:45;;;;;;;;;;;;;;;10.47;53.20;97465.63;4219255;28;5711;-76
2023/12/28 08:52:48;;;;;;;;;;;;;;;10.46;53.50;97469.28;4203985;28;5743;-75
2023/12/28 08:54:50;;;;;;;;;;;;;;;10.46;53.44;97475.38;4210682;28;5718;-76
2023/12/28 08:56:53;;;;;;;;;;;;;;;10.47;53.24;97468.28;4213697;28;5593;-76
2023/12/28 08:59:00;;;;;;;;;;;;;;;10.46;53.36;97466.63;4229991;28;5728;-77
2023/12/28 09:01:04;;;;;;;;;;;;;;;10.47;53.09;97468.28;4219698;28;5628;-76
2023/12/28 09:03:08;;;;;;;;;;;;;;;10.47;52.90;97477.03;4210309;28;5886;-76
2023/12/28 09:05:11;;;;;;;;;;;;;;;10.48;53.01;97469.91;4202364;28;5694;-76
2023/12/28 09:07:14;;;;;;;;;;;;;;;10.48;53.17;97481.31;4202187;28;5624;-76
2023/12/28 09:09:17;;;;;;;;;;;;;;;10.49;52.77;97469.72;4208968;28;5601;-76
2023/12/28 09:11:19;;;;;;;;;;;;;;;10.52;52.80;97475.66;4218946;28;5939;-73
2023/12/28 09:13:23;;;;;;;;;;;;;;;10.53;52.96;97472.84;4215437;28;5612;-72
2023/12/28 09:15:25;;;;;;;;;;;;;;;10.55;53.06;97472.69;4208258;28;5761;-72
2023/12/28 09:17:30;;;;;;;;;;;;;;;10.58;53.10;97477.63;4207880;28;5707;-72
2023/12/28 09:19:33;;;;;;;;;;;;;;;10.59;52.61;97472.16;4222253;28;5616;-72
2023/12/28 09:21:36;;;;;;;;;;;;;;;10.60;52.63;97468.50;4210844;28;5610;-73
2023/12/28 09:23:40;;;;;;;;;;;;;;;10.63;52.86;97475.25;4209891;28;5601;-73
2023/12/28 09:25:43;;;;;;;;;;;;;;;10.62;52.69;97478.91;4207309;28;5725;-72
2023/12/28 09:27:46;;;;;;;;;;;;;;;10.60;52.89;97479.06;4207418;28;5621;-73
2023/12/28 09:29:48;;;;;;;;;;;;;;;10.61;52.86;97477.25;4209248;28;5639;-74
2023/12/28 09:31:51;;;;;;;;;;;;;;;10.64;52.49;97482.19;4209137;28;5755;-73
2023/12/28 09:33:55;;;;;;;;;;;;;;;10.64;52.84;97480.34;4219450;28;5700;-73
2023/12/28 09:35:58;;;;;;;;;;;;;;;10.65;52.60;97483.84;4210622;28;5676;-75
2023/12/28 09:38:01;;;;;;;;;;;;;;;10.65;52.62;97468.00;4199062;28;5620;-74
2023/12/28 09:40:05;;;;;;;;;;;;;;;10.67;52.61;97472.09;4215811;28;5699;-74
2023/12/28 09:42:19;;;;;;;;;;;;;;;10.68;52.50;97467.63;4211551;28;5680;-74
2023/12/28 09:44:24;;;;;;;;;;;;;;;10.69;52.39;97469.25;4215798;28;5688;-74
2023/12/28 09:46:27;;;;;;;;;;;;;;;10.70;52.45;97461.16;4214621;28;5115;-74
2023/12/28 09:48:31;;;;;;;;;;;;;;;10.72;52.45;97463.63;4217059;28;5633;-74
2023/12/28 09:50:36;;;;;;;;;;;;;;;10.73;52.43;97462.63;4217888;28;5616;-74
2023/12/28 09:52:38;;;;;;;;;;;;;;;10.73;52.74;97459.97;4218755;28;5763;-74
2023/12/28 09:54:40;;;;;;;;;;;;;;;10.74;52.57;97462.44;4214387;28;5613;-73
2023/12/28 09:56:45;;;;;;;;;;;;;;;10.75;52.52;97466.72;4212741;28;5757;-73
2023/12/28 09:58:50;;;;;;;;;;;;;;;10.74;52.43;97457.13;4213238;28;5628;-74
2023/12/28 10:00:53;;;;;;;;;;;;;;;10.77;52.36;97471.84;4217420;28;5616;-74
2023/12/28 10:02:58;;;;;;;;;;;;;;;10.77;52.52;97471.84;4209977;28;5723;-74
2023/12/28 10:05:01;;;;;;;;;;;;;;;10.78;52.50;97463.75;4213681;28;5786;-74
2023/12/28 10:07:05;;;;;;;;;;;;;;;10.79;52.47;97460.09;4209266;28;5651;-73
2023/12/28 10:09:09;;;;;;;;;;;;;;;10.79;52.46;97449.50;4208022;28;6478;-73
2023/12/28 10:11:12;;;;;;;;;;;;;;;10.81;52.12;97449.34;4203060;28;5703;-67
2023/12/28 10:13:15;;;;;;;;;;;;;;;10.82;52.17;97445.69;4206203;28;5697;-69
2023/12/28 10:15:18;;;;;;;;;;;;;;;10.84;52.09;97443.69;4214509;28;5728;-71
2023/12/28 10:17:21;;;;;;;;;;;;;;;10.86;52.19;97449.59;4210832;28;5621;-70
2023/12/28 10:19:23;;;;;;;;;;;;;;;10.86;51.79;97454.06;4211896;28;5805;-71
2023/12/28 10:21:26;;;;;;;;;;;;;;;10.86;51.79;97454.06;4211681;28;5686;-70
2023/12/28 10:23:32;;;;;;;;;;;;;;;10.88;51.76;97452.91;4211915;28;5640;-73
2023/12/28 10:25:36;;;;;;;;;;;;;;;10.88;51.84;97452.91;4207167;28;5722;-71
2023/12/28 10:27:42;;;;;;;;;;;;;;;10.90;51.56;97453.56;4208436;28;5657;-67
2023/12/28 10:29:45;;;;;;;;;;;;;;;10.89;51.68;97459.84;4214156;28;5696;-84
2023/12/28 10:31:51;;;;;;;;;;;;;;;10.92;51.80;97461.31;4217698;28;5613;-75
2023/12/28 10:33:53;;;;;;;;;;;;;;;10.93;51.83;97455.84;4213738;28;5775;-72
2023/12/28 10:35:59;;;;;;;;;;;;;;;10.95;51.90;97461.75;4204814;28;5609;-74
2023/12/28 10:38:03;;;;;;;;;;;;;;;10.96;51.79;97455.47;4206251;28;5732;-70
2023/12/28 10:40:12;;;;;;;;;;;;;;;10.99;51.73;97449.84;4214535;28;5600;-73
2023/12/28 10:42:23;;;;;;;;;;;;;;;10.99;51.81;97452.50;4209894;28;5673;-71
2023/12/28 10:44:32;;;;;;;;;;;;;;;11.03;51.65;97452.94;4209198;28;5628;-69
2023/12/28 10:46:40;;;;;;;;;;;;;;;11.03;51.72;97452.94;4213469;28;6310;-73
2023/12/28 10:48:46;;;;;;;;;;;;;;;11.08;51.62;97459.31;4206419;28;5787;-72
2023/12/28 10:50:52;;;;;;;;;;;;;;;11.12;51.92;97461.63;4209268;28;5724;-67
2023/12/28 10:53:06;;;;;;;;;;;;;;;11.12;51.91;97453.69;4216001;28;6105;-75